TAF LFBH
LFBH 090500Z 0906/1006 22005KT 9999 SCT030 BECMG 0910/0912 16010KT BKN030 BECMG 0912/0914 5000 -RA OVC015 TEMPO 0916/0921 2000 DZ OVC005 BECMG 0921/0923 27020G30KT 9999 NSW BKN025 TEMPO 1000/1006 30025G40KT 3000 SHRA BKN020TCU=
METAR LFBH
LFBH 091100Z AUTO 15007KT 9999 FEW022 SCT027 BKN037 08/06 Q1011 NOSIG=
LFBH 091030Z AUTO 16008KT 9999 FEW031 BKN037 BKN043 08/06 Q1011 NOSIG=
LFBH 091000Z AUTO 15006KT 9999 OVC041 08/06 Q1011 NOSIG=
LFBH 090930Z AUTO 15005KT 9999 BKN043 BKN049 BKN072 08/06 Q1011 NOSIG=
LFBH 090900Z AUTO 13005KT 9999 BKN041 BKN056 OVC072 06/05 Q1011 NOSIG=
WC LFBH
WS LFBH
WV LFBH